CZ-0033 weather

Hospital Heliport
Hořovice, Central Bohemian Region, Czechia

Public forecast

Using degrees Celsius for public forecast. Weather courtesy of forecast.io.

Closest aviation weather report (METAR) to Hospital Heliport

Closest report is Václav Havel Airport Prague, 20.5 nm (38.0 km) NE. Retrieved 2019/10/22 12:30 UTC (21 minutes ago):

LKPR 221230Z VRB03KT 6000 FEW005 15/13 Q1024 NOSIG

Closest aviation forecast (TAF) to Hospital Heliport

Closest forecast is Václav Havel Airport Prague, 20.5 nm (38.0 km) NE. Retrieved 2019/10/22 12:30 UTC (21 minutes ago):

TAF LKPR 221100Z 2212/2318 VRB02KT 4000 BR SCT002 OVC003 BECMG 2212/2214 SCT003 TEMPO 2212/2218 01005KT 7000 BECMG 2219/2222 0500 FG BKN002 TEMPO 2222/2309 0300 FG OVC001 BECMG 2309/2312 2500 BR BKN004 TEMPO 2312/2317 5000 BR BKN007 PROB30 TEMPO 2313/2316 SCT010